Time,TemperatureF,DewpointF,PressureIn,WindDirection,WindDirectionDegrees,WindSpeedMPH,WindSpeedGustMPH,Humidity,HourlyPrecipIn,Conditions,Clouds,dailyrainin,SoftwareType,DateUTC
2013-04-10 00:00:00,59.6,42.5,30.03,North,357,0.0,0.0,53,0.00,,CLR,0.00,VWS V14.00,2013-04-10 04:00:00,
2013-04-10 00:05:00,60.0,42.8,30.03,WNW,299,3.0,4.3,53,0.00,,CLR,0.00,VWS V14.00,2013-04-10 04:05:00,
2013-04-10 00:11:00,59.6,42.9,30.03,WNW,299,3.0,3.2,54,0.00,,CLR,0.00,VWS V14.00,2013-04-10 04:11:00,
2013-04-10 00:16:00,59.2,43.1,30.03,WNW,299,0.0,0.0,55,0.00,,CLR,0.00,VWS V14.00,2013-04-10 04:16:00,
2013-04-10 00:21:00,58.8,42.7,30.06,WNW,299,0.0,0.0,55,0.00,,CLR,0.00,VWS V14.00,2013-04-10 04:21:00,
2013-04-10 00:26:00,58.8,43.2,30.06,WNW,299,0.0,0.0,56,0.00,,CLR,0.00,VWS V14.00,2013-04-10 04:26:00,
2013-04-10 00:31:00,59.0,43.4,30.06,WNW,299,0.0,0.0,56,0.00,,CLR,0.00,VWS V14.00,2013-04-10 04:31:00,
2013-04-10 00:36:00,59.2,43.5,30.06,WNW,299,0.0,0.0,56,0.00,,CLR,0.00,VWS V14.00,2013-04-10 04:36:00,
2013-04-10 00:41:00,59.2,44.0,30.06,WNW,299,0.0,0.0,57,0.00,,CLR,0.00,VWS V14.00,2013-04-10 04:41:00,
2013-04-10 00:46:00,59.2,43.5,30.06,WNW,299,0.0,0.0,56,0.00,,CLR,0.00,VWS V14.00,2013-04-10 04:46:00,
2013-04-10 00:51:00,59.4,44.2,30.06,WNW,299,3.0,3.2,57,0.00,,CLR,0.00,VWS V14.00,2013-04-10 04:51:00,
2013-04-10 00:57:00,59.0,43.8,30.06,ENE,72,3.0,3.8,57,0.00,,CLR,0.00,VWS V14.00,2013-04-10 04:57:00,
2013-04-10 01:02:00,58.8,43.7,30.06,East,89,4.4,4.8,57,0.00,,CLR,0.00,VWS V14.00,2013-04-10 05:02:00,
2013-04-10 01:07:00,58.8,43.7,30.06,East,85,3.4,3.8,57,0.00,,CLR,0.00,VWS V14.00,2013-04-10 05:07:00,
2013-04-10 01:12:00,58.3,43.6,30.06,NNW,333,0.0,4.3,58,0.00,,CLR,0.00,VWS V14.00,2013-04-10 05:12:00,
2013-04-10 01:17:00,58.3,43.1,30.06,NNW,333,0.0,0.0,57,0.00,,CLR,0.00,VWS V14.00,2013-04-10 05:17:00,
2013-04-10 01:22:00,57.9,42.8,30.06,NNW,333,0.0,0.0,57,0.00,,CLR,0.00,VWS V14.00,2013-04-10 05:22:00,
2013-04-10 01:27:00,58.3,43.1,30.06,East,98,3.9,4.3,57,0.00,,CLR,0.00,VWS V14.00,2013-04-10 05:27:00,
2013-04-10 01:32:00,57.9,42.8,30.06,East,98,0.0,3.2,57,0.00,,CLR,0.00,VWS V14.00,2013-04-10 05:32:00,
2013-04-10 01:37:00,57.2,43.0,30.06,NNW,341,2.5,4.3,59,0.00,,CLR,0.00,VWS V14.00,2013-04-10 05:37:00,
2013-04-10 01:42:00,56.4,42.3,30.06,NNW,341,0.0,0.0,59,0.00,,CLR,0.00,VWS V14.00,2013-04-10 05:42:00,
2013-04-10 01:47:00,56.6,42.9,30.06,NNW,341,0.0,0.0,60,0.00,,CLR,0.00,VWS V14.00,2013-04-10 05:47:00,
2013-04-10 01:52:00,56.8,43.1,30.06,NNW,341,0.0,0.0,60,0.00,,CLR,0.00,VWS V14.00,2013-04-10 05:52:00,
2013-04-10 01:57:00,56.8,43.1,30.06,NNE,14,2.5,2.7,60,0.00,,CLR,0.00,VWS V14.00,2013-04-10 05:57:00,
2013-04-10 02:02:00,56.8,43.5,30.06,East,99,3.0,3.8,61,0.00,,CLR,0.00,VWS V14.00,2013-04-10 06:02:00,
2013-04-10 02:08:00,56.8,43.5,30.06,East,99,2.5,2.7,61,0.00,,CLR,0.00,VWS V14.00,2013-04-10 06:08:00,
2013-04-10 02:13:00,56.8,43.5,30.06,East,99,2.5,2.7,61,0.00,,CLR,0.00,VWS V14.00,2013-04-10 06:13:00,
2013-04-10 02:18:00,57.0,43.7,30.06,East,99,0.0,0.0,61,0.00,,CLR,0.00,VWS V14.00,2013-04-10 06:18:00,
2013-04-10 02:23:00,56.4,42.7,30.06,East,99,0.0,2.7,60,0.00,,CLR,0.00,VWS V14.00,2013-04-10 06:23:00,
2013-04-10 02:28:00,55.7,42.9,30.06,North,353,0.0,2.7,62,0.00,,CLR,0.00,VWS V14.00,2013-04-10 06:28:00,
2013-04-10 02:33:00,55.5,42.7,30.06,North,353,0.0,0.0,62,0.00,,CLR,0.00,VWS V14.00,2013-04-10 06:33:00,
2013-04-10 02:38:00,55.5,43.5,30.06,North,353,0.0,0.0,64,0.00,,CLR,0.00,VWS V14.00,2013-04-10 06:38:00,
2013-04-10 02:43:00,55.5,43.5,30.06,North,353,0.0,0.0,64,0.00,,CLR,0.00,VWS V14.00,2013-04-10 06:43:00,
2013-04-10 02:48:00,55.3,43.4,30.06,North,353,0.0,0.0,64,0.00,,CLR,0.00,VWS V14.00,2013-04-10 06:48:00,
2013-04-10 02:53:00,55.3,43.0,30.06,North,353,2.5,2.7,63,0.00,,CLR,0.00,VWS V14.00,2013-04-10 06:53:00,
2013-04-10 02:58:00,55.3,43.4,30.06,East,80,3.0,3.2,64,0.00,,CLR,0.00,VWS V14.00,2013-04-10 06:58:00,
2013-04-10 03:03:00,55.1,43.2,30.06,NNW,328,0.0,0.0,64,0.00,,CLR,0.00,VWS V14.00,2013-04-10 07:03:00,
2013-04-10 03:08:00,54.6,42.7,30.06,NNW,328,0.0,0.0,64,0.00,,CLR,0.00,VWS V14.00,2013-04-10 07:08:00,
2013-04-10 03:13:00,54.8,43.2,30.06,East,100,4.4,5.9,65,0.00,,CLR,0.00,VWS V14.00,2013-04-10 07:13:00,
2013-04-10 03:18:00,54.6,43.1,30.06,East,88,3.0,3.8,65,0.00,,CLR,0.00,VWS V14.00,2013-04-10 07:18:00,
2013-04-10 03:23:00,54.8,43.2,30.06,NW,326,3.0,4.8,65,0.00,,CLR,0.00,VWS V14.00,2013-04-10 07:23:00,
2013-04-10 03:29:00,54.4,42.9,30.06,NNW,334,5.4,7.5,65,0.00,,CLR,0.00,VWS V14.00,2013-04-10 07:29:00,
2013-04-10 03:34:00,53.8,42.4,30.06,North,353,0.0,0.0,65,0.00,,CLR,0.00,VWS V14.00,2013-04-10 07:34:00,
2013-04-10 03:39:00,53.7,42.2,30.06,ESE,111,0.0,3.2,65,0.00,,CLR,0.00,VWS V14.00,2013-04-10 07:39:00,
2013-04-10 03:44:00,53.5,42.4,30.06,North,0,2.5,2.7,66,0.00,,CLR,0.00,VWS V14.00,2013-04-10 07:44:00,
2013-04-10 03:49:00,53.3,42.6,30.06,ENE,60,4.4,6.4,67,0.00,,CLR,0.00,VWS V14.00,2013-04-10 07:49:00,
2013-04-10 03:54:00,53.1,42.4,30.06,NE,47,2.5,2.7,67,0.00,,CLR,0.00,VWS V14.00,2013-04-10 07:54:00,
2013-04-10 03:59:00,53.3,42.6,30.06,ENE,63,0.0,2.7,67,0.00,,CLR,0.00,VWS V14.00,2013-04-10 07:59:00,
2013-04-10 04:04:00,53.3,42.6,30.06,ENE,67,0.0,3.8,67,0.00,,CLR,0.00,VWS V14.00,2013-04-10 08:04:00,
2013-04-10 04:09:00,53.1,42.4,30.06,SSE,166,3.0,3.2,67,0.00,,CLR,0.00,VWS V14.00,2013-04-10 08:09:00,
2013-04-10 04:14:00,53.1,42.4,30.06,East,81,3.9,4.3,67,0.00,,CLR,0.00,VWS V14.00,2013-04-10 08:14:00,
2013-04-10 04:19:00,53.3,43.0,30.06,SE,137,4.4,6.4,68,0.00,,CLR,0.00,VWS V14.00,2013-04-10 08:19:00,
2013-04-10 04:24:00,53.1,42.8,30.06,NNE,25,2.5,9.1,68,0.00,,CLR,0.00,VWS V14.00,2013-04-10 08:24:00,
2013-04-10 04:29:00,53.7,43.0,30.06,East,97,3.9,6.4,67,0.00,,CLR,0.00,VWS V14.00,2013-04-10 08:29:00,
2013-04-10 04:34:00,54.4,43.7,30.06,East,97,3.0,4.3,67,0.00,,CLR,0.00,VWS V14.00,2013-04-10 08:34:00,
2013-04-10 04:39:00,52.5,41.9,30.06,East,94,3.0,4.3,67,0.00,,CLR,0.00,VWS V14.00,2013-04-10 08:39:00,
2013-04-10 04:44:00,54.4,44.1,30.06,WNW,286,6.9,7.5,68,0.00,,CLR,0.00,VWS V14.00,2013-04-10 08:44:00,
2013-04-10 04:49:00,54.0,43.7,30.06,ESE,117,3.4,8.1,68,0.00,,CLR,0.00,VWS V14.00,2013-04-10 08:49:00,
2013-04-10 04:54:00,55.1,44.4,30.06,SE,138,4.9,5.4,67,0.00,,CLR,0.00,VWS V14.00,2013-04-10 08:54:00,
2013-04-10 04:59:00,55.7,44.9,30.06,WSW,240,2.5,3.8,67,0.00,,CLR,0.00,VWS V14.00,2013-04-10 08:59:00,
2013-04-10 05:05:00,58.1,47.6,30.06,SSW,199,3.0,4.8,68,0.00,,CLR,0.00,VWS V14.00,2013-04-10 09:05:00,
2013-04-10 05:10:00,57.4,45.3,30.06,East,98,3.4,4.8,64,0.00,,CLR,0.00,VWS V14.00,2013-04-10 09:10:00,
2013-04-10 05:15:00,57.5,45.9,30.06,SE,134,5.9,6.4,65,0.00,,CLR,0.00,VWS V14.00,2013-04-10 09:15:00,
2013-04-10 05:20:00,57.5,45.5,30.06,ENE,75,4.4,5.9,64,0.00,,CLR,0.00,VWS V14.00,2013-04-10 09:20:00,
2013-04-10 05:25:00,57.4,45.7,30.06,SSW,202,5.4,6.4,65,0.00,,CLR,0.00,VWS V14.00,2013-04-10 09:25:00,
2013-04-10 05:30:00,58.5,46.8,30.06,ESE,115,4.4,5.9,65,0.00,,CLR,0.00,VWS V14.00,2013-04-10 09:30:00,
2013-04-10 05:35:00,58.3,46.2,30.06,ESE,115,3.4,4.3,64,0.00,,CLR,0.00,VWS V14.00,2013-04-10 09:35:00,
2013-04-10 05:40:00,59.2,47.5,30.06,South,179,5.9,6.4,65,0.00,,CLR,0.00,VWS V14.00,2013-04-10 09:40:00,
2013-04-10 05:45:00,59.6,47.8,30.06,South,169,3.9,4.8,65,0.00,,CLR,0.00,VWS V14.00,2013-04-10 09:45:00,
2013-04-10 05:50:00,60.0,47.8,30.09,SE,135,3.9,4.8,64,0.00,,CLR,0.00,VWS V14.00,2013-04-10 09:50:00,
2013-04-10 05:55:00,60.1,47.9,30.09,SSE,157,0.0,2.7,64,0.00,,CLR,0.00,VWS V14.00,2013-04-10 09:55:00,
2013-04-10 06:00:00,60.5,48.3,30.09,NE,53,3.4,3.8,64,0.00,,CLR,0.00,VWS V14.00,2013-04-10 10:00:00,
2013-04-10 06:05:00,60.3,47.7,30.09,ENE,63,2.5,2.7,63,0.00,,CLR,0.00,VWS V14.00,2013-04-10 10:05:00,
2013-04-10 06:10:00,60.5,48.3,30.09,South,172,4.4,5.9,64,0.00,,CLR,0.00,VWS V14.00,2013-04-10 10:10:00,
2013-04-10 06:15:00,61.2,49.0,30.09,SSE,162,5.4,5.9,64,0.00,,CLR,0.00,VWS V14.00,2013-04-10 10:15:00,
2013-04-10 06:20:00,61.6,48.9,30.09,ESE,114,2.5,4.8,63,0.00,,CLR,0.00,VWS V14.00,2013-04-10 10:20:00,
2013-04-10 06:25:00,62.2,49.5,30.09,South,173,6.4,11.5,63,0.00,,CLR,0.00,VWS V14.00,2013-04-10 10:25:00,
2013-04-10 06:30:00,62.5,49.4,30.09,SSE,152,3.4,3.8,62,0.00,,CLR,0.00,VWS V14.00,2013-04-10 10:30:00,
2013-04-10 06:35:00,61.8,48.2,30.09,South,180,3.0,3.8,61,0.00,,CLR,0.00,VWS V14.00,2013-04-10 10:35:00,
2013-04-10 06:40:00,62.2,49.0,30.09,South,187,3.4,4.3,62,0.00,,CLR,0.00,VWS V14.00,2013-04-10 10:40:00,
2013-04-10 06:45:00,62.2,48.6,30.09,SE,138,0.0,3.8,61,0.00,,CLR,0.00,VWS V14.00,2013-04-10 10:45:00,
2013-04-10 06:50:00,60.9,47.4,30.09,ENE,67,3.0,3.8,61,0.00,,CLR,0.00,VWS V14.00,2013-04-10 10:50:00,
2013-04-10 06:55:00,61.2,48.1,30.09,ENE,67,0.0,2.7,62,0.00,,CLR,0.00,VWS V14.00,2013-04-10 10:55:00,
2013-04-10 07:01:00,61.1,48.0,30.09,NNW,327,0.0,0.0,62,0.00,,SCT045,0.00,VWS V14.00,2013-04-10 11:01:00,
2013-04-10 07:06:00,61.1,48.4,30.09,East,81,2.5,3.8,63,0.00,,SCT045,0.00,VWS V14.00,2013-04-10 11:06:00,
2013-04-10 07:11:00,61.4,48.7,30.09,SE,135,0.0,3.2,63,0.00,,SCT045,0.00,VWS V14.00,2013-04-10 11:11:00,
2013-04-10 07:16:00,59.6,46.1,30.09,NNE,20,2.5,3.2,61,0.00,,SCT045,0.00,VWS V14.00,2013-04-10 11:16:00,
2013-04-10 07:21:00,60.5,47.9,30.09,East,85,0.0,2.7,63,0.00,,SCT045,0.00,VWS V14.00,2013-04-10 11:21:00,
2013-04-10 07:26:00,59.8,46.7,30.09,NNW,332,0.0,2.7,62,0.00,,SCT045,0.00,VWS V14.00,2013-04-10 11:26:00,
2013-04-10 07:31:00,60.3,48.1,30.09,ENE,63,3.0,3.8,64,0.00,,SCT045,0.00,VWS V14.00,2013-04-10 11:31:00,
2013-04-10 07:36:00,60.3,47.7,30.09,WSW,243,3.4,4.3,63,0.00,,SCT045,0.00,VWS V14.00,2013-04-10 11:36:00,
2013-04-10 07:41:00,58.8,46.3,30.09,NNW,332,0.0,3.8,63,0.00,,SCT045,0.00,VWS V14.00,2013-04-10 11:41:00,
2013-04-10 07:47:00,58.8,46.7,30.09,NNW,328,3.4,4.3,64,0.00,,SCT045,0.00,VWS V14.00,2013-04-10 11:47:00,
2013-04-10 07:52:00,59.6,47.8,30.09,NNW,346,4.4,4.8,65,0.00,,SCT045,0.00,VWS V14.00,2013-04-10 11:52:00,
2013-04-10 07:57:00,59.6,47.8,30.09,North,6,0.0,3.2,65,0.00,,SCT045,0.00,VWS V14.00,2013-04-10 11:57:00,
2013-04-10 08:02:00,60.0,48.2,30.09,North,6,0.0,0.0,65,0.00,,CLR,0.00,VWS V14.00,2013-04-10 12:02:00,
2013-04-10 08:07:00,60.1,47.9,30.09,North,6,0.0,0.0,64,0.00,,CLR,0.00,VWS V14.00,2013-04-10 12:07:00,
2013-04-10 08:12:00,60.1,47.9,30.09,NNE,17,3.0,3.2,64,0.00,,CLR,0.00,VWS V14.00,2013-04-10 12:12:00,
2013-04-10 08:17:00,60.5,48.7,30.09,SE,136,0.0,2.7,65,0.00,,CLR,0.00,VWS V14.00,2013-04-10 12:17:00,
2013-04-10 08:22:00,60.0,47.8,30.09,NNW,337,3.4,4.3,64,0.00,,CLR,0.00,VWS V14.00,2013-04-10 12:22:00,
2013-04-10 08:27:00,60.3,48.1,30.09,NNW,343,0.0,0.0,64,0.00,,CLR,0.00,VWS V14.00,2013-04-10 12:27:00,
2013-04-10 08:33:00,60.9,48.6,30.09,NNW,343,2.5,2.7,64,0.00,,CLR,0.00,VWS V14.00,2013-04-10 12:33:00,
2013-04-10 08:38:00,61.1,48.8,30.09,NNW,334,0.0,0.0,64,0.00,,CLR,0.00,VWS V14.00,2013-04-10 12:38:00,
2013-04-10 08:43:00,61.8,48.7,30.09,SSW,208,3.0,3.2,62,0.00,,CLR,0.00,VWS V14.00,2013-04-10 12:43:00,
2013-04-10 08:48:00,62.4,49.2,30.09,SW,221,0.0,0.0,62,0.00,,CLR,0.00,VWS V14.00,2013-04-10 12:48:00,
2013-04-10 08:53:00,62.7,49.5,30.09,WNW,289,0.0,3.8,62,0.00,,CLR,0.00,VWS V14.00,2013-04-10 12:53:00,
2013-04-10 08:58:00,63.1,49.9,30.09,West,259,0.0,0.0,62,0.00,,CLR,0.00,VWS V14.00,2013-04-10 12:58:00,
2013-04-10 09:03:00,63.5,49.8,30.09,SSE,155,3.4,3.8,61,0.00,,CLR,0.00,VWS V14.00,2013-04-10 13:03:00,
2013-04-10 09:08:00,64.4,50.2,30.09,SSE,156,0.0,0.0,60,0.00,,CLR,0.00,VWS V14.00,2013-04-10 13:08:00,
2013-04-10 09:13:00,64.6,49.5,30.09,NNE,16,0.0,0.0,58,0.00,,CLR,0.00,VWS V14.00,2013-04-10 13:13:00,
2013-04-10 09:18:00,65.2,49.5,30.09,North,353,3.4,3.8,57,0.00,,CLR,0.00,VWS V14.00,2013-04-10 13:18:00,
2013-04-10 09:23:00,65.3,50.7,30.09,NNW,340,0.0,2.7,59,0.00,,CLR,0.00,VWS V14.00,2013-04-10 13:23:00,
2013-04-10 09:28:00,66.4,50.3,30.09,SSE,154,3.4,3.8,56,0.00,,CLR,0.00,VWS V14.00,2013-04-10 13:28:00,
2013-04-10 09:33:00,67.2,50.5,30.09,SSW,201,3.0,6.4,55,0.00,,CLR,0.00,VWS V14.00,2013-04-10 13:33:00,
2013-04-10 09:38:00,67.9,50.7,30.09,NNW,329,3.0,3.8,54,0.00,,CLR,0.00,VWS V14.00,2013-04-10 13:38:00,
2013-04-10 09:43:00,68.1,50.9,30.09,NW,319,3.0,3.8,54,0.00,,CLR,0.00,VWS V14.00,2013-04-10 13:43:00,
2013-04-10 09:49:00,68.8,51.0,30.09,WSW,246,3.9,4.8,53,0.00,,CLR,0.00,VWS V14.00,2013-04-10 13:49:00,
2013-04-10 09:54:00,69.6,50.7,30.09,SSW,206,4.9,5.9,51,0.00,,CLR,0.00,VWS V14.00,2013-04-10 13:54:00,
2013-04-10 09:59:00,70.3,50.3,30.09,South,184,4.4,9.1,49,0.00,,CLR,0.00,VWS V14.00,2013-04-10 13:59:00,
2013-04-10 10:04:00,70.7,50.6,30.09,SW,221,6.4,9.7,49,0.00,,FEW047,0.00,VWS V14.00,2013-04-10 14:04:00,
2013-04-10 10:09:00,71.3,49.4,30.09,South,191,4.4,7.5,46,0.00,,FEW047,0.00,VWS V14.00,2013-04-10 14:09:00,
2013-04-10 10:14:00,72.0,50.1,30.09,SSE,163,5.4,7.0,46,0.00,,FEW047,0.00,VWS V14.00,2013-04-10 14:14:00,
2013-04-10 10:19:00,72.2,49.7,30.09,West,261,3.4,5.9,45,0.00,,FEW047,0.00,VWS V14.00,2013-04-10 14:19:00,
2013-04-10 10:24:00,73.1,51.1,30.09,WSW,251,6.4,8.6,46,0.00,,FEW047,0.00,VWS V14.00,2013-04-10 14:24:00,
2013-04-10 10:29:00,72.8,50.2,30.09,WSW,240,4.4,7.5,45,0.00,,FEW047,0.00,VWS V14.00,2013-04-10 14:29:00,
2013-04-10 10:34:00,72.9,50.4,30.09,WSW,252,6.9,9.1,45,0.00,,FEW047,0.00,VWS V14.00,2013-04-10 14:34:00,
2013-04-10 10:39:00,73.5,50.3,30.09,SW,220,3.4,4.8,44,0.00,,FEW047,0.00,VWS V14.00,2013-04-10 14:39:00,
2013-04-10 10:44:00,74.1,50.8,30.09,WSW,258,3.4,7.0,44,0.00,,FEW047,0.00,VWS V14.00,2013-04-10 14:44:00,
2013-04-10 10:49:00,74.4,50.5,30.09,WSW,250,5.4,7.0,43,0.00,,FEW047,0.00,VWS V14.00,2013-04-10 14:49:00,
2013-04-10 10:54:00,75.3,51.9,30.09,WSW,250,8.4,10.5,44,0.00,,FEW047,0.00,VWS V14.00,2013-04-10 14:54:00,
2013-04-10 10:59:00,75.9,53.1,30.09,WSW,239,6.9,7.5,45,0.00,,FEW047,0.00,VWS V14.00,2013-04-10 14:59:00,
2013-04-10 11:04:00,76.3,52.8,30.06,West,261,8.4,11.5,44,0.00,,CLR,0.00,VWS V14.00,2013-04-10 15:04:00,
2013-04-10 11:09:00,76.1,52.6,30.06,WSW,240,6.9,10.5,44,0.00,,CLR,0.00,VWS V14.00,2013-04-10 15:09:00,
2013-04-10 11:14:00,75.7,52.9,30.06,SW,234,6.9,12.1,45,0.00,,CLR,0.00,VWS V14.00,2013-04-10 15:14:00,
2013-04-10 11:19:00,77.2,53.0,30.06,WSW,246,8.4,10.5,43,0.00,,CLR,0.00,VWS V14.00,2013-04-10 15:19:00,
2013-04-10 11:25:00,77.6,52.7,30.06,WSW,246,4.4,5.9,42,0.00,,CLR,0.00,VWS V14.00,2013-04-10 15:25:00,
2013-04-10 11:30:00,78.5,52.9,30.06,West,276,6.4,9.1,41,0.00,,CLR,0.00,VWS V14.00,2013-04-10 15:30:00,
2013-04-10 11:35:00,78.9,53.8,30.06,WSW,251,5.9,10.5,42,0.00,,CLR,0.00,VWS V14.00,2013-04-10 15:35:00,
2013-04-10 11:40:00,77.8,52.8,30.06,WSW,245,6.4,12.6,42,0.00,,CLR,0.00,VWS V14.00,2013-04-10 15:40:00,
2013-04-10 11:45:00,78.5,52.9,30.06,WSW,248,11.1,12.1,41,0.00,,CLR,0.00,VWS V14.00,2013-04-10 15:45:00,
2013-04-10 11:50:00,79.1,53.4,30.06,WNW,284,8.9,9.7,41,0.00,,CLR,0.00,VWS V14.00,2013-04-10 15:50:00,
2013-04-10 11:55:00,78.7,53.0,30.06,WNW,288,11.1,12.6,41,0.00,,CLR,0.00,VWS V14.00,2013-04-10 15:55:00,
2013-04-10 12:00:00,77.4,51.9,30.06,WNW,289,6.9,10.5,41,0.00,,CLR,0.00,VWS V14.00,2013-04-10 16:00:00,
2013-04-10 12:05:00,77.9,51.7,30.06,SW,235,6.4,7.0,40,0.00,,CLR,0.00,VWS V14.00,2013-04-10 16:05:00,
2013-04-10 12:10:00,77.9,52.4,30.06,WNW,292,8.4,9.9,41,0.00,,CLR,0.00,VWS V14.00,2013-04-10 16:10:00,
2013-04-10 12:15:00,78.1,51.2,30.06,West,260,8.4,9.1,39,0.00,,CLR,0.00,VWS V14.00,2013-04-10 16:15:00,
2013-04-10 12:20:00,77.8,52.2,30.06,WNW,289,10.6,11.5,41,0.00,,CLR,0.00,VWS V14.00,2013-04-10 16:20:00,
2013-04-10 12:25:00,78.7,53.0,30.06,WNW,285,6.4,7.5,41,0.00,,CLR,0.00,VWS V14.00,2013-04-10 16:25:00,
2013-04-10 12:30:00,79.2,50.7,30.06,WSW,242,8.4,9.1,37,0.00,,CLR,0.00,VWS V14.00,2013-04-10 16:30:00,
2013-04-10 12:35:00,80.5,53.3,30.03,WSW,237,6.4,9.9,39,0.00,,CLR,0.00,VWS V14.00,2013-04-10 16:35:00,
2013-04-10 12:40:00,80.7,51.3,30.03,South,183,12.1,13.2,36,0.00,,CLR,0.00,VWS V14.00,2013-04-10 16:40:00,
2013-04-10 12:46:00,81.3,51.8,30.03,SSW,205,6.9,9.7,36,0.00,,CLR,0.00,VWS V14.00,2013-04-10 16:46:00,
2013-04-10 12:51:00,81.5,50.4,30.03,SW,223,8.9,9.9,34,0.00,,CLR,0.00,VWS V14.00,2013-04-10 16:51:00,
2013-04-10 12:56:00,81.1,50.1,30.03,SSW,205,5.9,7.0,34,0.00,,CLR,0.00,VWS V14.00,2013-04-10 16:56:00,
2013-04-10 13:01:00,82.2,50.3,30.03,WSW,249,9.6,12.6,33,0.00,,FEW050,0.00,VWS V14.00,2013-04-10 17:01:00,
2013-04-10 13:06:00,82.8,51.6,30.03,SW,232,8.9,9.7,34,0.00,,FEW050,0.00,VWS V14.00,2013-04-10 17:06:00,
2013-04-10 13:11:00,83.3,51.2,30.03,SW,224,6.9,10.5,33,0.00,,FEW050,0.00,VWS V14.00,2013-04-10 17:11:00,
2013-04-10 13:16:00,82.6,50.6,30.03,West,274,5.9,9.7,33,0.00,,FEW050,0.00,VWS V14.00,2013-04-10 17:16:00,
2013-04-10 13:22:00,80.9,49.1,30.03,SW,224,7.9,10.5,33,0.00,,FEW050,0.00,VWS V14.00,2013-04-10 17:22:00,
2013-04-10 13:27:00,81.1,49.3,30.03,SW,236,7.4,8.6,33,0.00,,FEW050,0.00,VWS V14.00,2013-04-10 17:27:00,
2013-04-10 13:32:00,81.5,49.6,30.03,WSW,249,5.9,9.7,33,0.00,,FEW050,0.00,VWS V14.00,2013-04-10 17:32:00,
2013-04-10 13:38:00,81.1,48.5,30.03,WSW,243,6.4,9.1,32,0.00,,FEW050,0.00,VWS V14.00,2013-04-10 17:38:00,
2013-04-10 13:43:00,82.8,51.6,30.03,West,266,9.6,15.3,34,0.00,,FEW050,0.00,VWS V14.00,2013-04-10 17:43:00,
2013-04-10 13:48:00,82.8,49.9,30.03,SSW,210,9.6,12.6,32,0.00,,FEW050,0.00,VWS V14.00,2013-04-10 17:48:00,
2013-04-10 13:53:00,82.8,49.9,30.03,West,269,6.4,10.5,32,0.00,,FEW050,0.00,VWS V14.00,2013-04-10 17:53:00,
2013-04-10 13:58:00,83.1,49.4,30.03,SSW,209,5.4,7.5,31,0.00,,FEW050,0.00,VWS V14.00,2013-04-10 17:58:00,
2013-04-10 14:03:00,83.3,49.5,30.00,SSE,167,3.4,7.0,31,0.00,,CLR,0.00,VWS V14.00,2013-04-10 18:03:00,
2013-04-10 14:08:00,83.9,49.2,30.00,WSW,253,6.4,9.9,30,0.00,,CLR,0.00,VWS V14.00,2013-04-10 18:08:00,
2013-04-10 14:13:00,83.7,49.9,30.00,SW,232,10.1,12.1,31,0.00,,CLR,0.00,VWS V14.00,2013-04-10 18:13:00,
2013-04-10 14:18:00,84.1,49.3,30.00,SSW,193,6.4,10.5,30,0.00,,CLR,0.00,VWS V14.00,2013-04-10 18:18:00,
2013-04-10 14:23:00,84.4,49.6,30.00,SSW,205,8.9,11.5,30,0.00,,CLR,0.00,VWS V14.00,2013-04-10 18:23:00,
2013-04-10 14:28:00,84.2,49.5,30.00,SSE,168,9.1,10.5,30,0.00,,CLR,0.00,VWS V14.00,2013-04-10 18:28:00,
2013-04-10 14:33:00,84.2,49.5,30.00,SSW,206,9.6,12.6,30,0.00,,CLR,0.00,VWS V14.00,2013-04-10 18:33:00,
2013-04-10 14:38:00,85.0,50.1,30.00,South,178,14.5,18.5,30,0.00,,CLR,0.00,VWS V14.00,2013-04-10 18:38:00,
2013-04-10 14:43:00,84.8,50.0,30.00,SW,220,9.6,14.2,30,0.00,,CLR,0.00,VWS V14.00,2013-04-10 18:43:00,
2013-04-10 14:48:00,84.4,48.7,30.00,SSW,210,4.4,13.2,29,0.00,,CLR,0.00,VWS V14.00,2013-04-10 18:48:00,
2013-04-10 14:53:00,85.2,50.3,30.00,SSW,196,12.1,13.2,30,0.00,,CLR,0.00,VWS V14.00,2013-04-10 18:53:00,
2013-04-10 14:58:00,84.8,49.0,30.00,SW,229,11.6,12.6,29,0.00,,CLR,0.00,VWS V14.00,2013-04-10 18:58:00,
2013-04-10 15:03:00,84.8,49.0,30.00,WSW,251,6.9,10.5,29,0.00,,FEW065,0.00,VWS V14.00,2013-04-10 19:03:00,
2013-04-10 15:08:00,85.5,49.7,30.00,SSW,206,5.9,9.1,29,0.00,,FEW065,0.00,VWS V14.00,2013-04-10 19:08:00,
2013-04-10 15:14:00,85.5,49.7,30.00,ESE,111,11.6,12.6,29,0.00,,FEW065,0.00,VWS V14.00,2013-04-10 19:14:00,
2013-04-10 15:19:00,85.7,49.8,29.97,SSW,212,14.5,15.8,29,0.00,,FEW065,0.00,VWS V14.00,2013-04-10 19:19:00,
2013-04-10 15:24:00,85.9,50.0,29.97,SW,234,4.4,10.5,29,0.00,,FEW065,0.00,VWS V14.00,2013-04-10 19:24:00,
2013-04-10 15:29:00,85.9,50.0,29.97,SSW,213,8.4,10.5,29,0.00,,FEW065,0.00,VWS V14.00,2013-04-10 19:29:00,
2013-04-10 15:34:00,85.5,49.7,29.97,SSW,200,11.1,12.6,29,0.00,,FEW065,0.00,VWS V14.00,2013-04-10 19:34:00,
2013-04-10 15:39:00,86.1,50.2,29.97,SSE,161,13.5,14.8,29,0.00,,FEW065,0.00,VWS V14.00,2013-04-10 19:39:00,
2013-04-10 15:44:00,85.9,50.0,29.97,South,182,9.1,12.6,29,0.00,,FEW065,0.00,VWS V14.00,2013-04-10 19:44:00,
2013-04-10 15:49:00,86.1,50.2,29.97,SW,220,8.4,9.9,29,0.00,,FEW065,0.00,VWS V14.00,2013-04-10 19:49:00,
2013-04-10 15:54:00,85.9,50.0,29.97,SSW,199,12.1,15.3,29,0.00,,FEW065,0.00,VWS V14.00,2013-04-10 19:54:00,
2013-04-10 15:59:00,85.9,49.1,29.97,SSW,196,5.9,9.7,28,0.00,,FEW065,0.00,VWS V14.00,2013-04-10 19:59:00,
2013-04-10 16:04:00,86.5,49.5,29.97,SSE,154,4.4,13.2,28,0.00,,FEW070,0.00,VWS V14.00,2013-04-10 20:04:00,
2013-04-10 16:09:00,86.1,49.2,29.97,SSE,147,6.4,14.8,28,0.00,,FEW070,0.00,VWS V14.00,2013-04-10 20:09:00,
2013-04-10 16:14:00,86.8,49.8,29.97,SSW,212,9.6,13.2,28,0.00,,FEW070,0.00,VWS V14.00,2013-04-10 20:14:00,
2013-04-10 16:19:00,85.9,48.1,29.94,South,189,9.6,13.2,27,0.00,,FEW070,0.00,VWS V14.00,2013-04-10 20:19:00,
2013-04-10 16:24:00,86.3,48.4,29.94,SSW,208,7.4,10.5,27,0.00,,FEW070,0.00,VWS V14.00,2013-04-10 20:24:00,
2013-04-10 16:29:00,86.3,47.4,29.94,SSW,202,13.0,14.8,26,0.00,,FEW070,0.00,VWS V14.00,2013-04-10 20:29:00,
2013-04-10 16:34:00,86.3,47.4,29.94,SSW,213,9.6,13.2,26,0.00,,FEW070,0.00,VWS V14.00,2013-04-10 20:34:00,
2013-04-10 16:40:00,86.3,46.4,29.94,SSW,194,9.6,15.3,25,0.00,,FEW070,0.00,VWS V14.00,2013-04-10 20:40:00,
2013-04-10 16:45:00,85.7,45.9,29.94,SSW,200,16.5,20.9,25,0.00,,FEW070,0.00,VWS V14.00,2013-04-10 20:45:00,
2013-04-10 16:50:00,86.1,47.2,29.94,SSW,202,11.6,13.2,26,0.00,,FEW070,0.00,VWS V14.00,2013-04-10 20:50:00,
2013-04-10 16:55:00,85.7,45.9,29.94,WSW,254,11.6,15.3,25,0.00,,FEW070,0.00,VWS V14.00,2013-04-10 20:55:00,
2013-04-10 17:00:00,85.9,48.1,29.94,South,186,15.5,16.9,27,0.00,,FEW070,0.00,VWS V14.00,2013-04-10 21:00:00,
2013-04-10 17:05:00,85.4,46.6,29.94,West,276,10.1,16.9,26,0.00,,CLR,0.00,VWS V14.00,2013-04-10 21:05:00,
2013-04-10 17:10:00,85.5,45.7,29.94,SW,220,9.1,13.2,25,0.00,,CLR,0.00,VWS V14.00,2013-04-10 21:10:00,
2013-04-10 17:15:00,85.5,45.7,29.94,SSW,209,6.4,18.0,25,0.00,,CLR,0.00,VWS V14.00,2013-04-10 21:15:00,
2013-04-10 17:20:00,85.4,45.6,29.94,SW,233,8.4,12.6,25,0.00,,CLR,0.00,VWS V14.00,2013-04-10 21:20:00,
2013-04-10 17:25:00,84.6,45.0,29.94,SSW,202,8.9,9.9,25,0.00,,CLR,0.00,VWS V14.00,2013-04-10 21:25:00,
2013-04-10 17:30:00,85.0,45.3,29.94,SSW,209,8.4,12.1,25,0.00,,CLR,0.00,VWS V14.00,2013-04-10 21:30:00,
2013-04-10 17:35:00,85.0,45.3,29.94,SW,217,6.9,8.6,25,0.00,,CLR,0.00,VWS V14.00,2013-04-10 21:35:00,
2013-04-10 17:40:00,84.6,45.0,29.94,SSW,202,14.5,15.8,25,0.00,,CLR,0.00,VWS V14.00,2013-04-10 21:40:00,
2013-04-10 17:45:00,84.8,45.1,29.94,SW,230,10.1,11.0,25,0.00,,CLR,0.00,VWS V14.00,2013-04-10 21:45:00,
2013-04-10 17:51:00,84.6,43.9,29.94,SW,220,6.9,10.5,24,0.00,,CLR,0.00,VWS V14.00,2013-04-10 21:51:00,
2013-04-10 17:56:00,84.8,45.1,29.94,SW,233,12.1,15.3,25,0.00,,CLR,0.00,VWS V14.00,2013-04-10 21:56:00,
2013-04-10 18:01:00,84.4,43.7,29.94,West,263,6.9,10.5,24,0.00,,CLR,0.00,VWS V14.00,2013-04-10 22:01:00,
2013-04-10 18:06:00,84.4,43.7,29.94,SW,215,8.9,12.6,24,0.00,,CLR,0.00,VWS V14.00,2013-04-10 22:06:00,
2013-04-10 18:11:00,84.2,43.6,29.94,WSW,250,11.1,12.1,24,0.00,,CLR,0.00,VWS V14.00,2013-04-10 22:11:00,
2013-04-10 18:16:00,84.2,43.6,29.94,SSW,208,9.1,10.5,24,0.00,,CLR,0.00,VWS V14.00,2013-04-10 22:16:00,
2013-04-10 18:21:00,83.9,43.3,29.91,WSW,253,9.6,11.0,24,0.00,,CLR,0.00,VWS V14.00,2013-04-10 22:21:00,
2013-04-10 18:26:00,83.3,42.8,29.91,West,260,6.4,9.7,24,0.00,,CLR,0.00,VWS V14.00,2013-04-10 22:26:00,
2013-04-10 18:31:00,82.6,42.2,29.91,SW,217,8.4,10.5,24,0.00,,CLR,0.00,VWS V14.00,2013-04-10 22:31:00,
2013-04-10 18:37:00,82.8,42.3,29.91,South,191,8.4,9.9,24,0.00,,CLR,0.00,VWS V14.00,2013-04-10 22:37:00,
2013-04-10 18:42:00,82.9,43.5,29.91,SW,222,6.9,7.5,25,0.00,,CLR,0.00,VWS V14.00,2013-04-10 22:42:00,
2013-04-10 18:47:00,82.9,43.5,29.91,SSW,207,5.9,10.5,25,0.00,,CLR,0.00,VWS V14.00,2013-04-10 22:47:00,
2013-04-10 18:52:00,82.8,43.4,29.91,SSW,194,5.9,7.0,25,0.00,,CLR,0.00,VWS V14.00,2013-04-10 22:52:00,
2013-04-10 18:57:00,82.6,43.2,29.91,SW,223,3.9,4.8,25,0.00,,CLR,0.00,VWS V14.00,2013-04-10 22:57:00,
2013-04-10 19:02:00,82.2,43.9,29.91,SSW,192,6.9,9.9,26,0.00,,CLR,0.00,VWS V14.00,2013-04-10 23:02:00,
2013-04-10 19:07:00,81.7,44.5,29.91,South,176,3.9,7.5,27,0.00,,CLR,0.00,VWS V14.00,2013-04-10 23:07:00,
2013-04-10 19:12:00,81.3,44.1,29.91,SW,216,8.4,9.1,27,0.00,,CLR,0.00,VWS V14.00,2013-04-10 23:12:00,
2013-04-10 19:17:00,81.1,44.0,29.91,SSW,196,4.4,7.0,27,0.00,,CLR,0.00,VWS V14.00,2013-04-10 23:17:00,
2013-04-10 19:22:00,80.7,44.6,29.91,South,177,4.4,5.9,28,0.00,,CLR,0.00,VWS V14.00,2013-04-10 23:22:00,
2013-04-10 19:27:00,80.9,43.8,29.91,SSW,193,6.4,8.1,27,0.00,,CLR,0.00,VWS V14.00,2013-04-10 23:27:00,
2013-04-10 19:32:00,80.3,44.3,29.91,South,185,5.9,7.0,28,0.00,,CLR,0.00,VWS V14.00,2013-04-10 23:32:00,
2013-04-10 19:38:00,80.0,44.0,29.91,SSW,196,6.9,9.7,28,0.00,,CLR,0.00,VWS V14.00,2013-04-10 23:38:00,
2013-04-10 19:43:00,79.8,43.8,29.91,South,179,3.4,5.9,28,0.00,,CLR,0.00,VWS V14.00,2013-04-10 23:43:00,
2013-04-10 19:48:00,79.4,43.5,29.91,South,177,3.4,4.3,28,0.00,,CLR,0.00,VWS V14.00,2013-04-10 23:48:00,
2013-04-10 19:53:00,79.1,43.2,29.91,SSE,166,8.4,9.1,28,0.00,,CLR,0.00,VWS V14.00,2013-04-10 23:53:00,
2013-04-10 19:58:00,79.2,42.4,29.91,SSW,211,3.0,5.9,27,0.00,,CLR,0.00,VWS V14.00,2013-04-10 23:58:00,
2013-04-10 20:03:00,78.9,42.1,29.91,South,178,2.5,3.8,27,0.00,,CLR,0.00,VWS V14.00,2013-04-11 00:03:00,
2013-04-10 20:08:00,78.5,41.8,29.91,South,170,3.9,4.8,27,0.00,,CLR,0.00,VWS V14.00,2013-04-11 00:08:00,
2013-04-10 20:13:00,78.3,41.6,29.91,SSW,201,4.4,4.8,27,0.00,,CLR,0.00,VWS V14.00,2013-04-11 00:13:00,
2013-04-10 20:18:00,78.1,41.5,29.91,SW,214,3.4,6.4,27,0.00,,CLR,0.00,VWS V14.00,2013-04-11 00:18:00,
2013-04-10 20:23:00,77.6,41.0,29.91,SSW,195,5.4,7.0,27,0.00,,CLR,0.00,VWS V14.00,2013-04-11 00:23:00,
2013-04-10 20:28:00,77.6,41.0,29.91,South,180,6.4,7.5,27,0.00,,CLR,0.00,VWS V14.00,2013-04-11 00:28:00,
2013-04-10 20:33:00,77.2,40.7,29.91,South,179,4.4,7.0,27,0.00,,CLR,0.00,VWS V14.00,2013-04-11 00:33:00,
2013-04-10 20:38:00,77.0,40.5,29.91,South,172,6.4,7.0,27,0.00,,CLR,0.00,VWS V14.00,2013-04-11 00:38:00,
2013-04-10 20:43:00,76.8,40.3,29.91,SSE,156,4.4,4.8,27,0.00,,CLR,0.00,VWS V14.00,2013-04-11 00:43:00,
2013-04-10 20:48:00,76.6,40.2,29.91,SSW,209,0.0,3.8,27,0.00,,CLR,0.00,VWS V14.00,2013-04-11 00:48:00,
2013-04-10 20:54:00,75.7,40.3,29.91,West,270,3.0,3.2,28,0.00,,CLR,0.00,VWS V14.00,2013-04-11 00:54:00,
2013-04-10 20:59:00,75.0,40.6,29.91,WSW,257,3.0,3.8,29,0.00,,CLR,0.00,VWS V14.00,2013-04-11 00:59:00,
2013-04-10 21:04:00,74.6,41.2,29.94,West,265,3.0,3.2,30,0.00,,CLR,0.00,VWS V14.00,2013-04-11 01:04:00,
2013-04-10 21:09:00,73.5,41.0,29.94,NW,320,0.0,0.0,31,0.00,,CLR,0.00,VWS V14.00,2013-04-11 01:09:00,
2013-04-10 21:14:00,73.1,41.5,29.94,NNW,332,3.9,4.3,32,0.00,,CLR,0.00,VWS V14.00,2013-04-11 01:14:00,
2013-04-10 21:19:00,72.8,41.2,29.94,NNW,334,0.0,0.0,32,0.00,,CLR,0.00,VWS V14.00,2013-04-11 01:19:00,
2013-04-10 21:24:00,73.1,41.5,29.94,South,173,2.5,3.2,32,0.00,,CLR,0.00,VWS V14.00,2013-04-11 01:24:00,
2013-04-10 21:29:00,73.3,41.7,29.94,SW,214,2.5,3.2,32,0.00,,CLR,0.00,VWS V14.00,2013-04-11 01:29:00,
2013-04-10 21:34:00,73.3,41.7,29.94,South,178,0.0,3.2,32,0.00,,CLR,0.00,VWS V14.00,2013-04-11 01:34:00,
2013-04-10 21:39:00,72.6,41.0,29.94,NW,319,0.0,0.0,32,0.00,,CLR,0.00,VWS V14.00,2013-04-11 01:39:00,
2013-04-10 21:44:00,72.4,40.9,29.94,WSW,240,2.5,2.7,32,0.00,,CLR,0.00,VWS V14.00,2013-04-11 01:44:00,
2013-04-10 21:49:00,72.6,41.0,29.94,WSW,240,0.0,0.0,32,0.00,,CLR,0.00,VWS V14.00,2013-04-11 01:49:00,
2013-04-10 21:54:00,71.4,40.9,29.94,NW,316,2.5,2.7,33,0.00,,CLR,0.00,VWS V14.00,2013-04-11 01:54:00,
2013-04-10 21:59:00,71.1,40.5,29.94,NW,316,0.0,0.0,33,0.00,,CLR,0.00,VWS V14.00,2013-04-11 01:59:00,
2013-04-10 22:04:00,70.9,40.4,29.94,NW,316,0.0,0.0,33,0.00,,CLR,0.00,VWS V14.00,2013-04-11 02:04:00,
2013-04-10 22:09:00,70.3,40.7,29.94,NNW,331,2.5,2.7,34,0.00,,CLR,0.00,VWS V14.00,2013-04-11 02:09:00,
2013-04-10 22:15:00,69.8,40.9,29.94,NNE,14,2.5,3.2,35,0.00,,CLR,0.00,VWS V14.00,2013-04-11 02:15:00,
2013-04-10 22:20:00,69.4,41.3,29.94,NE,52,3.0,3.8,36,0.00,,CLR,0.00,VWS V14.00,2013-04-11 02:20:00,
2013-04-10 22:25:00,69.4,41.3,29.94,NE,46,2.5,3.2,36,0.00,,CLR,0.00,VWS V14.00,2013-04-11 02:25:00,
2013-04-10 22:30:00,69.4,41.3,29.94,NE,51,3.0,3.2,36,0.00,,CLR,0.00,VWS V14.00,2013-04-11 02:30:00,
2013-04-10 22:35:00,69.4,42.0,29.94,NE,56,3.0,3.2,37,0.00,,CLR,0.00,VWS V14.00,2013-04-11 02:35:00,
2013-04-10 22:40:00,69.4,42.0,29.94,NE,56,3.0,3.2,37,0.00,,CLR,0.00,VWS V14.00,2013-04-11 02:40:00,
2013-04-10 22:45:00,69.4,42.0,29.94,ENE,72,3.0,3.8,37,0.00,,CLR,0.00,VWS V14.00,2013-04-11 02:45:00,
2013-04-10 22:50:00,69.4,42.0,29.94,East,89,3.9,4.3,37,0.00,,CLR,0.00,VWS V14.00,2013-04-11 02:50:00,
2013-04-10 22:55:00,69.4,42.0,29.94,East,80,3.4,4.3,37,0.00,,CLR,0.00,VWS V14.00,2013-04-11 02:55:00,
2013-04-10 23:00:00,69.6,42.2,29.94,ENE,73,3.9,4.3,37,0.00,,CLR,0.00,VWS V14.00,2013-04-11 03:00:00,
2013-04-10 23:05:00,68.8,42.2,29.94,ENE,77,3.9,4.3,38,0.00,,CLR,0.00,VWS V14.00,2013-04-11 03:05:00,
2013-04-10 23:10:00,68.7,41.4,29.94,ESE,106,3.9,4.3,37,0.00,,CLR,0.00,VWS V14.00,2013-04-11 03:10:00,
2013-04-10 23:15:00,69.0,41.0,29.94,ESE,106,3.9,4.3,36,0.00,,CLR,0.00,VWS V14.00,2013-04-11 03:15:00,
2013-04-10 23:20:00,68.3,40.3,29.94,ENE,76,3.4,4.3,36,0.00,,CLR,0.00,VWS V14.00,2013-04-11 03:20:00,
2013-04-10 23:25:00,68.5,40.5,29.94,East,79,0.0,2.7,36,0.00,,CLR,0.00,VWS V14.00,2013-04-11 03:25:00,
2013-04-10 23:30:00,67.2,40.1,29.94,West,261,0.0,3.8,37,0.00,,CLR,0.00,VWS V14.00,2013-04-11 03:30:00,
2013-04-10 23:35:00,66.3,41.2,29.94,South,177,2.5,2.7,40,0.00,,CLR,0.00,VWS V14.00,2013-04-11 03:35:00,
2013-04-10 23:40:00,66.6,40.9,29.94,SSW,195,0.0,3.8,39,0.00,,CLR,0.00,VWS V14.00,2013-04-11 03:40:00,
2013-04-10 23:45:00,66.6,40.9,29.94,SSE,164,0.0,0.0,39,0.00,,CLR,0.00,VWS V14.00,2013-04-11 03:45:00,
2013-04-10 23:50:00,66.6,40.9,29.94,SSW,207,0.0,2.7,39,0.00,,CLR,0.00,VWS V14.00,2013-04-11 03:50:00,
2013-04-10 23:55:00,65.7,40.1,29.94,West,281,0.0,0.0,39,0.00,,CLR,0.00,VWS V14.00,2013-04-11 03:55:00,